createdAt,value
2022-12-26T00:01:26.279Z,3.03
2022-12-26T00:03:54.608Z,3.00
2022-12-26T00:06:27.952Z,3.30
2022-12-26T00:08:57.530Z,3.43
2022-12-26T00:11:26.612Z,2.80
2022-12-26T00:13:56.239Z,3.47
2022-12-26T00:16:25.135Z,3.13
2022-12-26T00:18:54.112Z,3.23
2022-12-26T00:21:23.805Z,3.17
2022-12-26T00:23:52.056Z,3.33
2022-12-26T00:26:24.306Z,2.83
2022-12-26T00:28:54.126Z,2.83
2022-12-26T00:31:25.004Z,3.23
2022-12-26T00:33:53.518Z,3.13
2022-12-26T00:36:23.638Z,3.03
2022-12-26T00:38:52.509Z,3.10
2022-12-26T00:41:22.683Z,2.97
2022-12-26T00:43:51.494Z,3.27
2022-12-26T00:46:20.109Z,3.40
2022-12-26T00:48:48.381Z,2.57
2022-12-26T00:51:16.782Z,3.20
2022-12-26T00:53:45.142Z,2.90
2022-12-26T00:56:13.379Z,3.17
2022-12-26T00:58:43.054Z,2.83
2022-12-26T01:01:15.908Z,3.03
2022-12-26T01:03:44.756Z,2.63
2022-12-26T01:06:14.776Z,2.67
2022-12-26T01:08:43.406Z,2.90
2022-12-26T01:11:13.571Z,3.23
2022-12-26T01:13:43.899Z,2.90
2022-12-26T01:16:12.037Z,2.57
2022-12-26T01:18:40.172Z,2.70
2022-12-26T01:21:09.915Z,2.90
2022-12-26T01:23:38.096Z,2.90
2022-12-26T01:26:17.323Z,2.83
2022-12-26T01:28:50.056Z,2.70
2022-12-26T01:31:18.939Z,2.80
2022-12-26T01:33:47.223Z,2.77
2022-12-26T01:36:16.469Z,3.20
2022-12-26T01:38:44.914Z,2.90
2022-12-26T01:41:21.014Z,2.27
2022-12-26T01:44:01.109Z,2.70
2022-12-26T01:46:32.854Z,2.37
2022-12-26T01:49:07.543Z,2.70
2022-12-26T01:51:40.284Z,2.80
2022-12-26T01:54:41.011Z,3.00
2022-12-26T01:57:02.575Z,2.70
2022-12-26T01:59:33.909Z,2.70
2022-12-26T02:02:02.978Z,2.27
2022-12-26T02:04:53.204Z,2.83
2022-12-26T02:07:21.585Z,2.83
2022-12-26T02:09:49.837Z,2.77
2022-12-26T02:12:36.958Z,2.77
2022-12-26T02:15:11.402Z,2.67
2022-12-26T02:17:40.186Z,2.70
2022-12-26T02:20:24.232Z,3.17
2022-12-26T02:23:49.342Z,2.73
2022-12-26T02:26:47.564Z,2.70
2022-12-26T02:29:52.059Z,2.77
2022-12-26T02:32:30.546Z,2.87
2022-12-26T02:35:04.036Z,3.03
2022-12-26T02:37:46.148Z,3.13
2022-12-26T02:40:28.168Z,2.83
2022-12-26T02:43:00.252Z,3.03
2022-12-26T02:45:53.091Z,2.97
2022-12-26T02:48:32.086Z,2.97
2022-12-26T02:51:28.291Z,3.40
2022-12-26T02:54:23.565Z,2.67
2022-12-26T02:57:14.300Z,2.83
2022-12-26T03:00:07.061Z,3.03
2022-12-26T03:02:58.616Z,3.20
2022-12-26T03:05:49.661Z,3.23
2022-12-26T03:08:43.137Z,2.77
2022-12-26T03:11:29.107Z,3.00
2022-12-26T03:14:03.354Z,2.93
2022-12-26T03:16:50.273Z,3.00
2022-12-26T03:19:19.444Z,2.90
2022-12-26T03:21:49.542Z,3.10
2022-12-26T03:24:18.883Z,2.43
2022-12-26T03:26:52.292Z,3.00
2022-12-26T03:29:40.244Z,3.00
2022-12-26T03:32:10.892Z,2.73
2022-12-26T03:34:42.324Z,2.63
2022-12-26T03:37:49.136Z,2.93
2022-12-26T03:40:51.477Z,3.27
2022-12-26T03:43:52.213Z,2.80
2022-12-26T03:46:43.879Z,2.90
2022-12-26T03:49:35.564Z,2.93
2022-12-26T03:52:28.771Z,2.63
2022-12-26T03:55:21.195Z,3.10
2022-12-26T03:58:11.201Z,3.27
2022-12-26T04:00:58.674Z,2.90
2022-12-26T04:03:48.089Z,2.90
2022-12-26T04:06:37.547Z,2.80
2022-12-26T04:09:30.945Z,3.03
2022-12-26T04:12:20.029Z,3.10
2022-12-26T04:15:11.919Z,3.03
2022-12-26T04:18:13.780Z,3.10
2022-12-26T04:20:48.406Z,3.03
2022-12-26T04:23:39.866Z,3.50
2022-12-26T04:26:31.053Z,3.30
2022-12-26T04:29:17.907Z,2.80
2022-12-26T04:32:08.307Z,3.80
2022-12-26T04:35:03.876Z,2.93
2022-12-26T04:37:50.689Z,2.80
2022-12-26T04:40:39.659Z,3.30
2022-12-26T04:43:50.501Z,3.67
2022-12-26T04:46:17.233Z,2.73
2022-12-26T04:49:04.812Z,3.00
2022-12-26T04:51:35.132Z,2.87
2022-12-26T04:54:03.391Z,3.03
2022-12-26T04:56:31.588Z,2.70
2022-12-26T04:58:59.829Z,2.53
2022-12-26T05:01:46.985Z,2.60
2022-12-26T05:04:33.403Z,2.70
2022-12-26T05:07:20.795Z,2.50
2022-12-26T05:09:54.475Z,2.87
2022-12-26T05:12:23.282Z,3.13
2022-12-26T05:14:51.383Z,2.60
2022-12-26T05:17:38.529Z,2.70
2022-12-26T05:20:25.472Z,2.60
2022-12-26T05:23:11.839Z,2.50
2022-12-26T05:26:01.287Z,2.70
2022-12-26T05:28:44.888Z,2.90
2022-12-26T05:31:15.250Z,2.77
2022-12-26T05:34:02.670Z,3.10
2022-12-26T05:36:34.542Z,2.60
2022-12-26T05:39:03.364Z,2.70
2022-12-26T05:41:31.469Z,2.67
2022-12-26T05:43:59.533Z,3.10
2022-12-26T05:46:27.776Z,3.27
2022-12-26T05:48:57.245Z,3.10
2022-12-26T05:51:25.400Z,2.50
2022-12-26T05:53:53.540Z,2.13
2022-12-26T05:56:22.136Z,2.70
2022-12-26T05:58:55.473Z,2.93
2022-12-26T06:01:24.113Z,2.40
2022-12-26T06:03:54.005Z,2.70
2022-12-26T06:06:24.541Z,2.57
2022-12-26T06:08:54.076Z,3.00
2022-12-26T06:11:23.024Z,2.53
2022-12-26T06:13:51.104Z,2.53
2022-12-26T06:16:20.030Z,2.87
2022-12-26T06:18:48.321Z,2.77
2022-12-26T06:21:18.252Z,2.77
2022-12-26T06:23:47.967Z,2.73
2022-12-26T06:26:16.211Z,2.60
2022-12-26T06:28:44.993Z,3.00
2022-12-26T06:31:16.113Z,2.90
2022-12-26T06:33:44.577Z,2.53
2022-12-26T06:36:15.295Z,2.80
2022-12-26T06:38:44.187Z,2.50
2022-12-26T06:41:16.283Z,2.60
2022-12-26T06:43:44.796Z,2.83
2022-12-26T06:46:15.550Z,2.90
2022-12-26T06:48:43.863Z,2.47
2022-12-26T06:51:14.567Z,3.10
2022-12-26T06:53:43.409Z,2.80
2022-12-26T06:56:15.942Z,3.03
2022-12-26T06:58:44.363Z,2.50
2022-12-26T07:01:14.343Z,3.20
2022-12-26T07:03:48.740Z,2.97
2022-12-26T07:06:24.870Z,3.50
2022-12-26T07:08:53.664Z,2.90
2022-12-26T07:11:25.485Z,2.63
2022-12-26T07:13:54.381Z,2.90
2022-12-26T07:16:22.861Z,2.57
2022-12-26T07:18:53.550Z,2.80
2022-12-26T07:21:21.934Z,3.40
2022-12-26T07:23:50.046Z,2.80
2022-12-26T07:26:18.110Z,3.03
2022-12-26T07:28:47.568Z,3.07
2022-12-26T07:31:17.807Z,2.90
2022-12-26T07:33:48.539Z,2.70
2022-12-26T07:36:16.842Z,3.17
2022-12-26T07:38:44.925Z,3.80
2022-12-26T07:41:31.162Z,3.10
2022-12-26T07:44:00.590Z,2.70
2022-12-26T07:46:28.884Z,3.13
2022-12-26T07:48:57.003Z,2.60
2022-12-26T07:51:25.173Z,3.13
2022-12-26T07:53:53.316Z,2.50
2022-12-26T07:56:21.413Z,2.47
2022-12-26T07:58:50.498Z,2.33
2022-12-26T08:01:20.370Z,2.60
2022-12-26T08:03:50.759Z,2.53
2022-12-26T08:06:19.664Z,2.40
2022-12-26T08:08:51.065Z,2.97
2022-12-26T08:11:21.495Z,2.53
2022-12-26T08:13:49.667Z,3.10
2022-12-26T08:16:19.369Z,3.10
2022-12-26T08:18:47.517Z,2.77
2022-12-26T08:21:15.725Z,3.20
2022-12-26T08:23:43.823Z,2.80
2022-12-26T08:26:13.576Z,2.90
2022-12-26T08:28:43.424Z,2.83
2022-12-26T08:31:13.764Z,2.97
2022-12-26T08:33:43.268Z,2.90
2022-12-26T08:36:13.776Z,3.00
2022-12-26T08:38:42.153Z,2.83
2022-12-26T08:41:10.654Z,3.20
2022-12-26T08:44:24.485Z,2.90
2022-12-26T08:46:27.788Z,2.83
2022-12-26T08:48:57.198Z,3.30
2022-12-26T08:51:26.973Z,3.00
2022-12-26T08:53:56.193Z,3.33
2022-12-26T08:56:26.353Z,2.80
2022-12-26T08:58:54.738Z,2.57
2022-12-26T09:01:24.667Z,3.10
2022-12-26T09:03:54.653Z,3.37
2022-12-26T09:06:26.202Z,3.10
2022-12-26T09:08:54.673Z,2.63
2022-12-26T09:11:26.763Z,3.20
2022-12-26T09:13:56.846Z,3.20
2022-12-26T09:16:27.046Z,2.83
2022-12-26T09:18:57.281Z,2.80
2022-12-26T09:21:27.534Z,2.70
2022-12-26T09:23:59.054Z,2.23
2022-12-26T09:26:27.704Z,2.80
2022-12-26T09:28:56.358Z,2.67
2022-12-26T09:31:26.037Z,2.50
2022-12-26T09:33:54.399Z,2.37
2022-12-26T09:36:25.353Z,2.00
2022-12-26T09:38:56.950Z,2.03
2022-12-26T09:41:41.582Z,2.03
2022-12-26T09:44:18.373Z,2.27
2022-12-26T09:46:53.868Z,1.97
2022-12-26T09:49:27.315Z,1.90
2022-12-26T09:51:58.009Z,2.23
2022-12-26T09:54:34.025Z,1.90
2022-12-26T09:57:11.375Z,2.40
2022-12-26T09:59:46.981Z,2.10
2022-12-26T10:02:19.558Z,2.10
2022-12-26T10:04:48.076Z,2.33
2022-12-26T10:07:27.891Z,2.00
2022-12-26T10:10:06.008Z,1.93
2022-12-26T10:12:53.077Z,1.80
2022-12-26T10:15:35.897Z,1.87
2022-12-26T10:18:14.914Z,2.00
2022-12-26T10:20:55.954Z,2.30
2022-12-26T10:23:33.740Z,1.93
2022-12-26T10:26:09.970Z,2.10
2022-12-26T10:28:42.276Z,2.10
2022-12-26T10:31:18.866Z,2.20
2022-12-26T10:33:51.880Z,2.33
2022-12-26T10:36:31.911Z,2.10
2022-12-26T10:39:01.654Z,2.10
2022-12-26T10:41:36.457Z,2.70
2022-12-26T10:44:04.838Z,2.30
2022-12-26T10:47:15.240Z,2.07
2022-12-26T10:49:45.933Z,2.40
2022-12-26T10:52:15.310Z,2.67
2022-12-26T10:54:43.577Z,2.40
2022-12-26T10:57:13.291Z,2.17
2022-12-26T10:59:45.154Z,3.23
2022-12-26T11:02:24.282Z,2.70
2022-12-26T11:07:53.085Z,3.53
2022-12-26T11:10:23.187Z,3.00
2022-12-26T11:12:55.425Z,2.80
2022-12-26T11:15:28.024Z,2.40
2022-12-26T11:18:09.632Z,2.60
2022-12-26T11:20:38.021Z,2.57
2022-12-26T11:23:23.898Z,2.83
2022-12-26T11:25:53.799Z,2.93
2022-12-26T11:28:31.340Z,3.10
2022-12-26T11:31:00.692Z,2.77
2022-12-26T11:33:31.369Z,2.77
2022-12-26T11:36:09.154Z,2.40
2022-12-26T11:38:47.104Z,2.10
2022-12-26T11:41:36.534Z,2.50
2022-12-26T11:44:17.558Z,2.30
2022-12-26T11:46:49.671Z,2.30
2022-12-26T11:49:26.268Z,2.77
2022-12-26T11:51:59.339Z,2.63
2022-12-26T11:54:35.447Z,2.20
2022-12-26T11:57:13.203Z,2.40
2022-12-26T11:59:42.681Z,2.10
2022-12-26T12:02:27.006Z,1.90
2022-12-26T12:04:58.304Z,1.60
2022-12-26T12:07:52.882Z,1.83
2022-12-26T12:10:59.755Z,1.83
2022-12-26T12:13:43.182Z,1.73
2022-12-26T12:16:30.949Z,2.10
2022-12-26T12:19:09.954Z,2.20
2022-12-26T12:21:45.049Z,2.10
2022-12-26T12:24:38.048Z,2.07
2022-12-26T12:27:12.840Z,2.40
2022-12-26T12:30:04.377Z,2.20
2022-12-26T12:32:47.769Z,1.90
2022-12-26T12:35:32.884Z,2.53
2022-12-26T12:38:30.058Z,2.00
2022-12-26T12:41:10.847Z,2.30
2022-12-26T12:43:45.240Z,2.20
2022-12-26T12:46:24.056Z,1.67
2022-12-26T12:49:20.339Z,2.23
2022-12-26T12:51:58.321Z,1.50
2022-12-26T12:54:55.784Z,1.80
2022-12-26T12:57:31.735Z,1.63
2022-12-26T13:00:13.286Z,1.63
2022-12-26T13:02:46.113Z,1.50
2022-12-26T13:05:33.244Z,1.60
2022-12-26T13:08:06.004Z,1.20
2022-12-26T13:10:38.663Z,1.50
2022-12-26T13:13:14.081Z,1.40
2022-12-26T13:15:46.401Z,1.60
2022-12-26T13:18:18.807Z,1.60
2022-12-26T13:20:51.755Z,1.70
2022-12-26T13:23:47.312Z,1.90
2022-12-26T13:26:19.209Z,1.40
2022-12-26T13:28:57.184Z,1.40
2022-12-26T13:31:25.595Z,1.43
2022-12-26T13:33:56.271Z,1.40
2022-12-26T13:36:44.274Z,1.60
2022-12-26T13:39:35.562Z,1.37
2022-12-26T13:42:51.050Z,1.47
2022-12-26T13:45:58.837Z,1.10
2022-12-26T13:49:06.771Z,1.30
2022-12-26T13:52:01.003Z,1.70
2022-12-26T13:54:30.116Z,1.30
2022-12-26T13:57:35.263Z,1.30
2022-12-26T14:00:23.066Z,1.30
2022-12-26T14:03:19.211Z,1.20
2022-12-26T14:06:11.759Z,1.30
2022-12-26T14:08:54.790Z,1.20
2022-12-26T14:11:38.332Z,1.60
2022-12-26T14:14:18.634Z,1.37
2022-12-26T14:16:54.184Z,1.60
2022-12-26T14:19:37.281Z,1.70
2022-12-26T14:22:12.727Z,1.43
2022-12-26T14:24:57.648Z,1.20
2022-12-26T14:27:34.595Z,1.80
2022-12-26T14:30:24.742Z,1.47
2022-12-26T14:33:05.207Z,1.27
2022-12-26T14:35:38.228Z,1.30
2022-12-26T14:38:29.303Z,1.60
2022-12-26T14:41:05.871Z,1.70
2022-12-26T14:43:38.005Z,1.47
2022-12-26T14:46:29.999Z,1.53
2022-12-26T14:49:00.832Z,1.50
2022-12-26T14:51:43.933Z,1.40
2022-12-26T14:54:50.848Z,1.23
2022-12-26T14:57:49.840Z,1.20
2022-12-26T15:00:31.184Z,1.20
2022-12-26T15:03:42.041Z,1.33
2022-12-26T15:06:58.018Z,1.23
2022-12-26T15:09:54.410Z,1.30
2022-12-26T15:12:58.725Z,1.40
2022-12-26T15:15:45.430Z,1.30
2022-12-26T15:18:51.264Z,1.70
2022-12-26T15:22:01.250Z,1.67
2022-12-26T15:25:24.095Z,2.07
2022-12-26T15:28:25.735Z,2.70
2022-12-26T15:31:20.397Z,3.40
2022-12-26T15:33:54.272Z,6.87
2022-12-26T15:36:30.166Z,7.97
2022-12-26T15:39:03.765Z,6.30
2022-12-26T15:41:40.531Z,4.67
2022-12-26T15:44:29.439Z,2.50
2022-12-26T15:47:17.041Z,2.27
2022-12-26T15:50:04.763Z,2.40
2022-12-26T15:52:44.405Z,2.97
2022-12-26T15:55:43.184Z,3.97
2022-12-26T15:58:25.711Z,3.00
2022-12-26T16:00:55.843Z,1.90
2022-12-26T16:03:34.396Z,0.80
2022-12-26T16:06:15.847Z,0.80
2022-12-26T16:09:01.283Z,0.80
2022-12-26T16:11:32.695Z,0.70
2022-12-26T16:14:02.973Z,0.80
2022-12-26T16:16:34.431Z,0.77
2022-12-26T16:19:22.684Z,0.87
2022-12-26T16:22:11.073Z,0.93
2022-12-26T16:24:42.064Z,0.90
2022-12-26T16:27:16.370Z,0.80
2022-12-26T16:29:48.596Z,0.80
2022-12-26T16:32:20.145Z,1.03
2022-12-26T16:34:50.171Z,0.83
2022-12-26T16:37:21.533Z,0.87
2022-12-26T16:40:18.845Z,0.80
2022-12-26T16:42:57.227Z,0.80
2022-12-26T16:45:26.493Z,0.80
2022-12-26T16:47:55.708Z,1.03
2022-12-26T16:50:29.704Z,0.90
2022-12-26T16:53:13.918Z,0.90
2022-12-26T16:55:45.717Z,0.70
2022-12-26T16:58:24.874Z,0.73
2022-12-26T17:01:07.115Z,0.80
2022-12-26T17:03:44.421Z,0.80
2022-12-26T17:06:17.615Z,0.90
2022-12-26T17:08:49.032Z,1.70
2022-12-26T17:11:18.127Z,1.00
2022-12-26T17:13:52.202Z,1.20
2022-12-26T17:16:24.555Z,1.00
2022-12-26T17:18:53.700Z,1.23
2022-12-26T17:21:30.021Z,3.70
2022-12-26T17:24:15.979Z,1.00
2022-12-26T17:26:50.606Z,0.90
2022-12-26T17:29:48.648Z,0.90
2022-12-26T17:32:25.314Z,1.10
2022-12-26T17:34:53.615Z,1.23
2022-12-26T17:37:25.888Z,4.97
2022-12-26T17:40:02.450Z,3.93
2022-12-26T17:42:31.763Z,2.03
2022-12-26T17:44:59.875Z,1.30
2022-12-26T17:47:29.844Z,2.43
2022-12-26T17:49:58.292Z,5.20
2022-12-26T17:52:30.455Z,17.37
2022-12-26T17:54:59.225Z,9.40
2022-12-26T17:57:29.580Z,8.73
2022-12-26T17:59:58.180Z,4.80
2022-12-26T18:02:26.345Z,5.10
2022-12-26T18:04:55.894Z,2.60
2022-12-26T18:07:30.976Z,3.07
2022-12-26T18:10:01.262Z,5.03
2022-12-26T18:12:29.450Z,5.20
2022-12-26T18:15:01.676Z,4.47
2022-12-26T18:17:32.800Z,7.93
2022-12-26T18:20:00.931Z,6.30
2022-12-26T18:22:30.017Z,6.47
2022-12-26T18:24:58.231Z,2.47
2022-12-26T18:27:30.933Z,4.83
2022-12-26T18:29:59.217Z,3.60
2022-12-26T18:32:28.710Z,4.33
2022-12-26T18:34:56.842Z,5.93
2022-12-26T18:37:27.395Z,2.10
2022-12-26T18:39:55.851Z,4.20
2022-12-26T18:42:26.318Z,2.37
2022-12-26T18:44:56.030Z,4.30
2022-12-26T18:47:24.503Z,4.30
2022-12-26T18:49:55.443Z,3.70
2022-12-26T18:52:23.531Z,3.40
2022-12-26T18:54:51.607Z,4.97
2022-12-26T18:57:21.407Z,3.80
2022-12-26T18:59:49.629Z,1.60
2022-12-26T19:02:20.184Z,1.30
2022-12-26T19:04:50.967Z,1.40
2022-12-26T19:07:21.110Z,1.40
2022-12-26T19:09:55.600Z,1.40
2022-12-26T19:12:24.477Z,1.30
2022-12-26T19:14:53.328Z,0.90
2022-12-26T19:17:22.848Z,0.80
2022-12-26T19:19:50.901Z,0.90
2022-12-26T19:22:18.960Z,0.80
2022-12-26T19:24:47.127Z,0.83
2022-12-26T19:27:15.234Z,0.80
2022-12-26T19:29:43.323Z,0.90
2022-12-26T19:32:11.441Z,0.80
2022-12-26T19:34:40.853Z,0.90
2022-12-26T19:37:09.149Z,0.90
2022-12-26T19:39:37.290Z,1.00
2022-12-26T19:42:05.539Z,0.93
2022-12-26T19:44:33.668Z,0.93
2022-12-26T19:47:11.738Z,1.10
2022-12-26T19:49:42.907Z,0.90
2022-12-26T19:52:11.344Z,1.00
2022-12-26T19:54:39.787Z,1.10
2022-12-26T19:57:07.882Z,0.90
2022-12-26T19:59:36.203Z,1.10
2022-12-26T20:02:04.507Z,1.30
2022-12-26T20:04:32.765Z,1.00
2022-12-26T20:07:02.601Z,1.20
2022-12-26T20:09:30.712Z,1.00
2022-12-26T20:11:58.963Z,0.97
2022-12-26T20:14:28.239Z,1.00
2022-12-26T20:17:06.847Z,0.97
2022-12-26T20:19:36.328Z,0.83
2022-12-26T20:22:06.796Z,1.10
2022-12-26T20:24:35.761Z,1.10
2022-12-26T20:27:04.515Z,1.17
2022-12-26T20:29:32.826Z,1.00
2022-12-26T20:32:02.066Z,1.10
2022-12-26T20:34:30.192Z,1.00
2022-12-26T20:37:01.051Z,1.00
2022-12-26T20:39:32.008Z,1.20
2022-12-26T20:42:00.481Z,1.30
2022-12-26T20:44:28.549Z,1.13
2022-12-26T20:46:56.613Z,1.00
2022-12-26T20:49:24.732Z,1.00
2022-12-26T20:51:52.797Z,1.00
2022-12-26T20:54:20.906Z,0.90
2022-12-26T20:56:50.317Z,0.80
2022-12-26T20:59:18.739Z,0.90
2022-12-26T21:01:46.933Z,1.03
2022-12-26T21:04:19.270Z,1.10
2022-12-26T21:06:47.708Z,0.83
2022-12-26T21:09:16.162Z,1.00
2022-12-26T21:11:45.597Z,0.93
2022-12-26T21:14:18.188Z,1.20
2022-12-26T21:16:48.109Z,1.37
2022-12-26T21:19:17.759Z,0.80
2022-12-26T21:21:47.394Z,0.90
2022-12-26T21:24:17.837Z,1.00
2022-12-26T21:26:46.639Z,0.90
2022-12-26T21:29:18.129Z,1.00
2022-12-26T21:31:46.931Z,0.80
2022-12-26T21:34:17.329Z,1.03
2022-12-26T21:37:06.243Z,0.80
2022-12-26T21:39:35.718Z,0.90
2022-12-26T21:42:06.912Z,1.00
2022-12-26T21:44:36.965Z,1.00
2022-12-26T21:47:05.765Z,1.13
2022-12-26T21:49:33.886Z,1.03
2022-12-26T21:52:02.085Z,1.20
2022-12-26T21:54:49.324Z,1.07
2022-12-26T21:57:17.983Z,1.30
2022-12-26T21:59:59.962Z,1.07
2022-12-26T22:02:47.725Z,0.90
2022-12-26T22:05:16.486Z,1.10
2022-12-26T22:07:44.714Z,1.17
2022-12-26T22:10:34.500Z,1.20
2022-12-26T22:13:02.419Z,1.30
2022-12-26T22:15:49.705Z,1.77
2022-12-26T22:18:18.081Z,1.00
2022-12-26T22:20:46.381Z,1.17
2022-12-26T22:23:15.244Z,1.40
2022-12-26T22:25:43.403Z,1.17
2022-12-26T22:28:11.839Z,1.13
2022-12-26T22:30:47.651Z,1.73
2022-12-26T22:33:15.890Z,1.20
2022-12-26T22:35:44.143Z,1.47
2022-12-26T22:38:12.509Z,1.40
2022-12-26T22:40:40.717Z,1.40
2022-12-26T22:43:08.831Z,1.70
2022-12-26T22:45:42.498Z,1.30
2022-12-26T22:48:10.689Z,1.43
2022-12-26T22:50:38.841Z,1.70
2022-12-26T22:53:06.957Z,1.60
2022-12-26T22:55:35.042Z,1.43
2022-12-26T22:58:03.119Z,1.40
2022-12-26T23:00:31.254Z,1.57
2022-12-26T23:03:00.814Z,1.50
2022-12-26T23:05:29.557Z,1.50
2022-12-26T23:07:58.124Z,1.70
2022-12-26T23:10:27.012Z,1.60
2022-12-26T23:12:56.205Z,1.70
2022-12-26T23:15:26.807Z,1.33
2022-12-26T23:18:26.550Z,1.63
2022-12-26T23:21:13.310Z,1.53
2022-12-26T23:23:41.863Z,1.60
2022-12-26T23:26:10.925Z,1.53
2022-12-26T23:28:56.737Z,1.73
2022-12-26T23:31:24.909Z,1.53
2022-12-26T23:33:54.310Z,1.70
2022-12-26T23:36:22.400Z,1.53
2022-12-26T23:38:50.536Z,1.70
2022-12-26T23:41:19.295Z,1.63
2022-12-26T23:43:47.361Z,1.80
2022-12-26T23:46:15.510Z,1.90
2022-12-26T23:48:43.645Z,2.27
2022-12-26T23:51:13.303Z,2.40
2022-12-26T23:53:41.352Z,2.10
2022-12-26T23:56:10.530Z,2.00
2022-12-26T23:58:39.889Z,2.10
